createdAt,value
2019-04-28T00:01:22.817Z,31.98
2019-04-28T00:04:01.381Z,31.88
2019-04-28T00:06:41.748Z,32.13
2019-04-28T00:09:21.289Z,32.16
2019-04-28T00:12:01.736Z,31.99
2019-04-28T00:14:41.825Z,32.41
2019-04-28T00:17:21.273Z,32.69
2019-04-28T00:20:01.373Z,32.59
2019-04-28T00:22:54.309Z,32.66
2019-04-28T00:25:33.889Z,32.58
2019-04-28T00:28:11.719Z,32.43
2019-04-28T00:30:51.614Z,32.64
2019-04-28T00:33:28.685Z,32.60
2019-04-28T00:36:06.585Z,32.70
2019-04-28T00:38:44.732Z,32.72
2019-04-28T00:41:22.297Z,32.81
2019-04-28T00:43:59.423Z,32.93
2019-04-28T00:46:41.008Z,33.11
2019-04-28T00:49:23.326Z,33.14
2019-04-28T00:52:03.107Z,32.92
2019-04-28T00:54:42.059Z,33.00
2019-04-28T00:57:21.063Z,33.19
2019-04-28T01:00:02.075Z,33.60
2019-04-28T01:02:44.863Z,32.83
2019-04-28T01:05:22.002Z,33.12
2019-04-28T01:08:01.157Z,33.30
2019-04-28T01:10:40.891Z,33.32
2019-04-28T01:13:18.673Z,33.25
2019-04-28T01:16:19.323Z,33.91
2019-04-28T01:19:05.499Z,33.82
2019-04-28T01:22:03.288Z,33.81
2019-04-28T01:24:41.083Z,34.71
2019-04-28T01:27:37.528Z,34.98
2019-04-28T01:30:22.972Z,34.40
2019-04-28T01:33:06.129Z,33.91
2019-04-28T01:35:43.782Z,34.21
2019-04-28T01:38:21.319Z,33.95
2019-04-28T01:40:59.956Z,33.94
2019-04-28T01:43:38.303Z,34.23
2019-04-28T01:46:19.859Z,35.20
2019-04-28T01:48:59.914Z,35.27
2019-04-28T01:51:38.075Z,33.99
2019-04-28T01:54:17.567Z,34.57
2019-04-28T01:56:54.963Z,34.56
2019-04-28T01:59:32.100Z,34.27
2019-04-28T02:02:10.353Z,34.58
2019-04-28T02:04:49.909Z,34.85
2019-04-28T02:07:32.918Z,34.37
2019-04-28T02:10:11.132Z,34.37
2019-04-28T02:12:50.301Z,34.30
2019-04-28T02:15:30.060Z,34.28
2019-04-28T02:18:09.998Z,35.64
2019-04-28T02:20:51.882Z,35.15
2019-04-28T02:23:32.815Z,35.91
2019-04-28T02:26:12.078Z,35.52
2019-04-28T02:28:50.440Z,35.71
2019-04-28T02:31:27.438Z,35.61
2019-04-28T02:34:04.925Z,35.59
2019-04-28T02:36:43.525Z,35.77
2019-04-28T02:39:21.205Z,35.92
2019-04-28T02:42:00.994Z,34.72
2019-04-28T02:44:40.263Z,35.28
2019-04-28T02:47:17.207Z,35.60
2019-04-28T02:50:02.535Z,34.48
2019-04-28T02:53:04.465Z,35.18
2019-04-28T02:55:42.126Z,35.40
2019-04-28T02:58:22.373Z,35.60
2019-04-28T03:01:10.709Z,35.03
2019-04-28T03:03:40.838Z,34.72
2019-04-28T03:06:20.662Z,34.37
2019-04-28T03:09:00.209Z,35.39
2019-04-28T03:11:37.600Z,36.02
2019-04-28T03:14:15.045Z,35.14
2019-04-28T03:16:52.680Z,35.61
2019-04-28T03:19:33.778Z,35.21
2019-04-28T03:22:11.563Z,35.41
2019-04-28T03:24:51.273Z,35.76
2019-04-28T03:28:03.134Z,37.11
2019-04-28T03:31:34.958Z,35.91
2019-04-28T03:33:48.972Z,35.47
2019-04-28T03:36:24.285Z,35.88
2019-04-28T03:39:02.002Z,35.56
2019-04-28T03:41:41.339Z,35.28
2019-04-28T03:44:20.852Z,35.63
2019-04-28T03:47:02.743Z,35.91
2019-04-28T03:49:37.391Z,35.86
2019-04-28T03:52:15.191Z,36.39
2019-04-28T03:54:53.662Z,37.46
2019-04-28T03:57:31.680Z,35.43
2019-04-28T04:00:12.098Z,35.42
2019-04-28T04:02:51.771Z,36.23
2019-04-28T04:05:30.609Z,36.50
2019-04-28T04:08:10.669Z,37.15
2019-04-28T04:11:00.275Z,38.61
2019-04-28T04:13:51.405Z,36.68
2019-04-28T04:16:47.323Z,36.54
2019-04-28T04:19:26.752Z,37.09
2019-04-28T04:22:04.342Z,36.59
2019-04-28T04:24:42.981Z,38.22
2019-04-28T04:27:21.220Z,37.26
2019-04-28T04:30:01.764Z,37.74
2019-04-28T04:32:41.154Z,36.08
2019-04-28T04:35:21.426Z,36.01
2019-04-28T04:38:00.462Z,36.51
2019-04-28T04:40:38.141Z,37.78
2019-04-28T04:43:15.984Z,36.33
2019-04-28T04:45:56.532Z,36.53
2019-04-28T04:48:33.894Z,35.67
2019-04-28T04:51:11.285Z,36.05
2019-04-28T04:53:50.978Z,35.23
2019-04-28T04:56:30.026Z,35.82
2019-04-28T04:59:10.276Z,35.91
2019-04-28T05:01:54.689Z,36.29
2019-04-28T05:04:41.715Z,35.87
2019-04-28T05:07:20.698Z,36.28
2019-04-28T05:09:59.536Z,35.86
2019-04-28T05:12:37.556Z,34.86
2019-04-28T05:15:15.495Z,35.34
2019-04-28T05:17:53.145Z,34.78
2019-04-28T05:20:30.950Z,35.53
2019-04-28T05:23:25.530Z,35.23
2019-04-28T05:26:07.914Z,34.96
2019-04-28T05:28:50.471Z,35.91
2019-04-28T05:31:24.432Z,35.32
2019-04-28T05:34:04.235Z,35.84
2019-04-28T05:36:44.666Z,34.94
2019-04-28T05:39:23.125Z,35.22
2019-04-28T05:42:01.026Z,35.45
2019-04-28T05:44:40.594Z,35.48
2019-04-28T05:47:20.344Z,35.36
2019-04-28T05:50:13.170Z,35.28
2019-04-28T05:53:10.626Z,35.79
2019-04-28T05:55:56.022Z,35.97
2019-04-28T05:58:58.072Z,36.03
2019-04-28T06:01:54.597Z,35.61
2019-04-28T06:04:33.496Z,35.99
2019-04-28T06:07:22.325Z,35.48
2019-04-28T06:10:01.568Z,35.56
2019-04-28T06:12:40.602Z,35.39
2019-04-28T06:15:20.403Z,35.73
2019-04-28T06:17:57.823Z,35.65
2019-04-28T06:20:35.296Z,35.07
2019-04-28T06:23:13.809Z,35.51
2019-04-28T06:25:52.307Z,35.66
2019-04-28T06:28:29.422Z,35.79
2019-04-28T06:31:07.259Z,35.89
2019-04-28T06:33:46.194Z,35.94
2019-04-28T06:36:23.877Z,35.84
2019-04-28T06:39:01.553Z,35.99
2019-04-28T06:41:41.280Z,35.83
2019-04-28T06:44:19.846Z,36.16
2019-04-28T06:46:56.999Z,35.63
2019-04-28T06:49:34.231Z,35.28
2019-04-28T06:52:12.352Z,35.89
2019-04-28T06:54:50.221Z,35.87
2019-04-28T06:57:27.783Z,35.58
2019-04-28T07:00:06.427Z,35.60
2019-04-28T07:02:44.391Z,35.81
2019-04-28T07:05:22.977Z,36.17
2019-04-28T07:08:01.041Z,36.00
2019-04-28T07:10:38.713Z,35.82
2019-04-28T07:13:17.288Z,35.66
2019-04-28T07:15:56.239Z,35.84
2019-04-28T07:18:33.421Z,35.99
2019-04-28T07:21:22.443Z,36.33
2019-04-28T07:24:00.654Z,36.19
2019-04-28T07:26:40.173Z,35.61
2019-04-28T07:29:21.052Z,36.38
2019-04-28T07:31:58.429Z,35.47
2019-04-28T07:34:36.364Z,36.10
2019-04-28T07:37:14.345Z,36.04
2019-04-28T07:39:52.217Z,35.62
2019-04-28T07:42:29.311Z,35.56
2019-04-28T07:45:07.799Z,35.46
2019-04-28T07:47:45.252Z,35.57
2019-04-28T07:50:22.215Z,35.63
2019-04-28T07:53:05.361Z,35.45
2019-04-28T07:55:42.553Z,35.83
2019-04-28T07:58:20.436Z,35.41
2019-04-28T08:00:57.775Z,35.32
2019-04-28T08:03:48.518Z,35.65
2019-04-28T08:06:14.835Z,35.79
2019-04-28T08:08:53.279Z,35.46
2019-04-28T08:11:31.299Z,35.43
2019-04-28T08:14:09.327Z,35.87
2019-04-28T08:16:49.335Z,35.49
2019-04-28T08:19:28.614Z,35.67
2019-04-28T08:22:05.911Z,36.00
2019-04-28T08:24:43.731Z,35.69
2019-04-28T08:27:21.494Z,35.82
2019-04-28T08:29:59.142Z,35.90
2019-04-28T08:32:54.000Z,36.22
2019-04-28T08:35:32.322Z,35.94
2019-04-28T08:38:09.682Z,36.05
2019-04-28T08:40:48.627Z,35.52
2019-04-28T08:43:27.459Z,35.56
2019-04-28T08:46:04.721Z,35.61
2019-04-28T08:48:43.370Z,35.68
2019-04-28T08:51:21.582Z,35.65
2019-04-28T08:53:59.540Z,35.76
2019-04-28T08:56:37.253Z,36.20
2019-04-28T08:59:15.017Z,35.83
2019-04-28T09:01:52.712Z,35.71
2019-04-28T09:04:30.278Z,35.57
2019-04-28T09:07:07.942Z,35.51
2019-04-28T09:09:45.154Z,35.54
2019-04-28T09:12:23.531Z,35.33
2019-04-28T09:15:01.217Z,35.85
2019-04-28T09:17:40.992Z,35.14
2019-04-28T09:20:19.986Z,35.39
2019-04-28T09:22:57.722Z,35.56
2019-04-28T09:25:35.720Z,35.47
2019-04-28T09:28:13.495Z,35.45
2019-04-28T09:30:51.085Z,35.47
2019-04-28T09:33:28.255Z,35.24
2019-04-28T09:36:05.546Z,35.00
2019-04-28T09:38:42.761Z,35.05
2019-04-28T09:41:22.878Z,35.55
2019-04-28T09:44:07.494Z,35.01
2019-04-28T09:46:45.264Z,35.15
2019-04-28T09:49:22.502Z,35.13
2019-04-28T09:52:00.378Z,35.02
2019-04-28T09:54:37.647Z,35.07
2019-04-28T09:57:15.421Z,34.82
2019-04-28T09:59:52.970Z,35.00
2019-04-28T10:02:30.966Z,35.05
2019-04-28T10:08:11.530Z,34.80
2019-04-28T10:14:34.305Z,34.95
2019-04-28T10:16:55.421Z,34.70
2019-04-28T10:19:33.865Z,35.02
2019-04-28T10:22:11.058Z,35.01
2019-04-28T10:24:48.541Z,35.22
2019-04-28T10:27:25.950Z,35.07
2019-04-28T10:30:04.208Z,35.32
2019-04-28T10:32:42.628Z,35.25
2019-04-28T10:35:20.339Z,35.14
2019-04-28T10:37:57.916Z,34.70
2019-04-28T10:41:02.878Z,35.03
2019-04-28T10:43:40.566Z,34.85
2019-04-28T10:46:17.972Z,34.65
2019-04-28T10:48:55.287Z,34.48
2019-04-28T10:51:33.834Z,34.56
2019-04-28T10:54:10.872Z,34.62
2019-04-28T10:56:48.578Z,34.59
2019-04-28T10:59:25.971Z,34.54
2019-04-28T11:02:03.634Z,34.47
2019-04-28T11:04:49.042Z,34.45
2019-04-28T11:07:26.724Z,34.37
2019-04-28T11:10:09.971Z,34.28
2019-04-28T11:12:48.113Z,34.38
2019-04-28T11:15:35.473Z,34.31
2019-04-28T11:18:13.864Z,34.34
2019-04-28T11:20:50.892Z,34.26
2019-04-28T11:23:29.626Z,34.40
2019-04-28T11:26:06.941Z,34.43
2019-04-28T11:28:44.261Z,34.37
2019-04-28T11:31:24.221Z,34.53
2019-04-28T11:34:11.436Z,34.42
2019-04-28T11:36:48.653Z,34.59
2019-04-28T11:39:35.009Z,34.51
2019-04-28T11:42:12.372Z,33.99
2019-04-28T11:44:50.114Z,34.00
2019-04-28T11:47:27.398Z,33.65
2019-04-28T11:50:06.155Z,33.92
2019-04-28T11:52:43.416Z,34.07
2019-04-28T11:55:22.161Z,34.15
2019-04-28T11:57:59.185Z,34.07
2019-04-28T12:00:37.411Z,33.95
2019-04-28T12:03:14.355Z,33.54
2019-04-28T12:05:52.920Z,33.42
2019-04-28T12:08:30.086Z,33.16
2019-04-28T12:11:17.604Z,33.18
2019-04-28T12:14:18.631Z,33.30
2019-04-28T12:17:14.592Z,33.17
2019-04-28T12:19:55.627Z,32.91
2019-04-28T12:22:33.344Z,32.81
2019-04-28T12:25:10.821Z,32.86
2019-04-28T12:27:50.148Z,32.76
2019-04-28T12:30:27.041Z,33.00
2019-04-28T12:33:04.793Z,33.13
2019-04-28T12:35:48.056Z,33.45
2019-04-28T12:38:21.679Z,33.41
2019-04-28T12:40:58.668Z,33.38
2019-04-28T12:43:36.462Z,33.51
2019-04-28T12:46:13.843Z,33.30
2019-04-28T12:48:55.176Z,32.92
2019-04-28T12:51:32.384Z,32.90
2019-04-28T12:54:11.194Z,32.99
2019-04-28T12:56:48.757Z,33.24
2019-04-28T12:59:33.752Z,33.43
2019-04-28T13:02:36.661Z,33.06
2019-04-28T13:05:15.727Z,32.94
2019-04-28T13:07:53.147Z,32.60
2019-04-28T13:10:30.973Z,32.65
2019-04-28T13:13:08.364Z,32.54
2019-04-28T13:15:46.525Z,32.66
2019-04-28T13:18:24.045Z,33.07
2019-04-28T13:21:02.174Z,33.30
2019-04-28T13:23:39.783Z,32.80
2019-04-28T13:26:16.913Z,33.03
2019-04-28T13:28:54.289Z,33.25
2019-04-28T13:31:33.017Z,33.40
2019-04-28T13:34:11.761Z,33.30
2019-04-28T13:36:49.515Z,32.92
2019-04-28T13:39:32.501Z,33.34
2019-04-28T13:42:10.464Z,33.06
2019-04-28T13:44:54.620Z,33.34
2019-04-28T13:47:33.488Z,33.28
2019-04-28T13:50:19.942Z,33.39
2019-04-28T13:52:58.012Z,33.25
2019-04-28T13:55:59.733Z,33.73
2019-04-28T13:58:40.286Z,33.71
2019-04-28T14:01:35.370Z,33.86
2019-04-28T14:04:28.188Z,33.77
2019-04-28T14:07:08.177Z,33.64
2019-04-28T14:09:45.669Z,33.29
2019-04-28T14:12:23.120Z,33.09
2019-04-28T14:15:01.610Z,32.99
2019-04-28T14:17:39.980Z,33.03
2019-04-28T14:20:18.490Z,33.20
2019-04-28T14:22:56.046Z,33.28
2019-04-28T14:25:33.770Z,32.84
2019-04-28T14:28:10.999Z,32.76
2019-04-28T14:30:48.741Z,33.19
2019-04-28T14:33:26.061Z,32.93
2019-04-28T14:36:05.427Z,33.15
2019-04-28T14:38:43.296Z,32.98
2019-04-28T14:41:20.840Z,33.05
2019-04-28T14:43:58.408Z,33.02
2019-04-28T14:46:36.761Z,32.69
2019-04-28T14:49:13.907Z,32.06
2019-04-28T14:51:51.690Z,32.30
2019-04-28T14:54:28.919Z,32.80
2019-04-28T14:57:06.637Z,32.96
2019-04-28T14:59:45.323Z,32.68
2019-04-28T15:02:44.556Z,32.66
2019-04-28T15:05:30.307Z,32.54
2019-04-28T15:08:36.248Z,32.55
2019-04-28T15:11:20.039Z,32.55
2019-04-28T15:13:56.964Z,32.82
2019-04-28T15:16:33.804Z,32.82
2019-04-28T15:19:12.123Z,32.87
2019-04-28T15:21:51.132Z,32.78
2019-04-28T15:24:29.957Z,32.69
2019-04-28T15:27:07.349Z,32.52
2019-04-28T15:29:45.404Z,32.84
2019-04-28T15:32:22.374Z,32.88
2019-04-28T15:35:00.201Z,32.70
2019-04-28T15:37:38.067Z,32.70
2019-04-28T15:40:18.284Z,32.71
2019-04-28T15:42:55.528Z,32.64
2019-04-28T15:45:33.468Z,32.53
2019-04-28T15:48:11.087Z,32.23
2019-04-28T15:50:51.100Z,32.45
2019-04-28T15:53:28.350Z,32.52
2019-04-28T15:56:27.774Z,32.68
2019-04-28T15:59:05.316Z,32.66
2019-04-28T16:01:43.275Z,32.70
2019-04-28T16:04:20.611Z,32.80
2019-04-28T16:06:57.836Z,32.56
2019-04-28T16:09:35.770Z,32.47
2019-04-28T16:12:14.674Z,32.45
2019-04-28T16:14:52.184Z,32.75
2019-04-28T16:17:30.412Z,32.48
2019-04-28T16:20:08.135Z,32.52
2019-04-28T16:22:47.182Z,32.79
2019-04-28T16:25:25.442Z,32.75
2019-04-28T16:28:03.076Z,32.47
2019-04-28T16:30:40.600Z,32.67
2019-04-28T16:33:18.724Z,32.50
2019-04-28T16:35:57.459Z,32.76
2019-04-28T16:38:35.664Z,32.85
2019-04-28T16:41:15.478Z,32.62
2019-04-28T16:43:57.404Z,32.57
2019-04-28T16:46:34.728Z,32.34
2019-04-28T16:49:12.105Z,32.40
2019-04-28T16:51:49.118Z,32.47
2019-04-28T16:54:27.697Z,32.56
2019-04-28T16:57:23.244Z,32.75
2019-04-28T17:00:22.135Z,32.09
2019-04-28T17:02:59.524Z,32.34
2019-04-28T17:05:37.205Z,32.82
2019-04-28T17:08:14.337Z,32.86
2019-04-28T17:10:51.449Z,32.61
2019-04-28T17:13:29.346Z,32.67
2019-04-28T17:16:09.263Z,32.96
2019-04-28T17:18:47.180Z,32.84
2019-04-28T17:21:27.177Z,32.98
2019-04-28T17:24:04.498Z,33.04
2019-04-28T17:26:44.130Z,32.87
2019-04-28T17:29:21.238Z,32.42
2019-04-28T17:31:59.259Z,32.69
2019-04-28T17:34:36.664Z,32.71
2019-04-28T17:37:15.637Z,32.90
2019-04-28T17:39:52.711Z,32.63
2019-04-28T17:42:30.587Z,32.78
2019-04-28T17:45:09.399Z,32.89
2019-04-28T17:47:48.265Z,32.87
2019-04-28T17:50:37.140Z,33.03
2019-04-28T17:53:15.444Z,32.94
2019-04-28T17:55:52.499Z,32.59
2019-04-28T17:58:30.386Z,32.18
2019-04-28T18:01:26.004Z,32.11
2019-04-28T18:04:20.369Z,32.26
2019-04-28T18:07:02.790Z,32.19
2019-04-28T18:09:40.711Z,32.01
2019-04-28T18:12:19.426Z,32.02
2019-04-28T18:15:00.792Z,31.98
2019-04-28T18:17:56.283Z,31.63
2019-04-28T18:20:35.244Z,31.98
2019-04-28T18:23:12.766Z,32.20
2019-04-28T18:25:50.287Z,31.98
2019-04-28T18:28:28.297Z,31.78
2019-04-28T18:31:28.009Z,31.99
2019-04-28T18:34:22.170Z,32.30
2019-04-28T18:37:21.941Z,32.24
2019-04-28T18:40:16.562Z,32.29
2019-04-28T18:43:17.086Z,32.94
2019-04-28T18:45:54.965Z,32.31
2019-04-28T18:48:32.820Z,32.31
2019-04-28T18:51:11.673Z,32.89
2019-04-28T18:53:50.038Z,33.00
2019-04-28T18:56:27.165Z,32.73
2019-04-28T18:59:05.381Z,32.75
2019-04-28T19:02:03.754Z,32.68
2019-04-28T19:04:42.198Z,32.60
2019-04-28T19:07:23.945Z,32.25
2019-04-28T19:10:17.284Z,32.31
2019-04-28T19:13:16.316Z,32.53
2019-04-28T19:16:16.534Z,32.32
2019-04-28T19:18:59.393Z,31.97
2019-04-28T19:21:39.149Z,32.11
2019-04-28T19:24:16.823Z,32.18
2019-04-28T19:26:56.747Z,31.80
2019-04-28T19:29:34.272Z,32.00
2019-04-28T19:32:11.700Z,32.22
2019-04-28T19:34:49.178Z,32.45
2019-04-28T19:37:27.262Z,31.93
2019-04-28T19:40:04.569Z,31.70
2019-04-28T19:42:43.543Z,31.84
2019-04-28T19:45:21.734Z,31.54
2019-04-28T19:48:00.540Z,31.41
2019-04-28T19:50:38.220Z,31.74
2019-04-28T19:53:16.228Z,31.75
2019-04-28T19:56:03.251Z,31.63
2019-04-28T19:58:52.395Z,31.47
2019-04-28T20:01:32.545Z,31.59
2019-04-28T20:04:10.376Z,31.68
2019-04-28T20:06:48.097Z,31.79
2019-04-28T20:09:26.597Z,31.68
2019-04-28T20:12:04.097Z,32.02
2019-04-28T20:14:42.292Z,32.06
2019-04-28T20:17:19.622Z,31.92
2019-04-28T20:19:57.873Z,31.83
2019-04-28T20:22:37.514Z,31.93
2019-04-28T20:25:16.694Z,31.84
2019-04-28T20:27:54.309Z,31.91
2019-04-28T20:30:33.867Z,31.96
2019-04-28T20:33:11.689Z,31.92
2019-04-28T20:35:54.366Z,32.02
2019-04-28T20:38:33.268Z,31.98
2019-04-28T20:41:33.238Z,32.02
2019-04-28T20:44:10.327Z,31.92
2019-04-28T20:46:47.354Z,31.62
2019-04-28T20:49:25.022Z,31.83
2019-04-28T20:52:03.772Z,32.24
2019-04-28T20:54:42.496Z,32.23
2019-04-28T20:57:22.642Z,32.11
2019-04-28T21:00:01.177Z,32.32
2019-04-28T21:02:42.132Z,32.81
2019-04-28T21:05:19.783Z,32.66
2019-04-28T21:07:58.592Z,32.36
2019-04-28T21:10:38.218Z,32.50
2019-04-28T21:13:20.381Z,32.65
2019-04-28T21:15:57.775Z,32.48
2019-04-28T21:18:35.426Z,32.38
2019-04-28T21:21:13.423Z,32.21
2019-04-28T21:23:52.114Z,32.18
2019-04-28T21:26:30.140Z,32.01
2019-04-28T21:29:10.321Z,32.22
2019-04-28T21:31:49.490Z,32.31
2019-04-28T21:34:28.082Z,32.27
2019-04-28T21:37:05.676Z,32.25
2019-04-28T21:39:43.903Z,32.34
2019-04-28T21:42:25.256Z,32.60
2019-04-28T21:45:20.332Z,32.20
2019-04-28T21:47:58.075Z,32.44
2019-04-28T21:50:35.849Z,32.68
2019-04-28T21:53:13.283Z,32.70
2019-04-28T21:55:51.860Z,32.43
2019-04-28T21:58:33.422Z,32.64
2019-04-28T22:01:11.176Z,32.49
2019-04-28T22:03:49.098Z,32.24
2019-04-28T22:06:28.946Z,32.14
2019-04-28T22:09:07.830Z,32.29
2019-04-28T22:11:47.025Z,32.30
2019-04-28T22:14:24.379Z,31.85
2019-04-28T22:17:02.991Z,31.89
2019-04-28T22:19:41.664Z,31.96
2019-04-28T22:22:20.241Z,32.23
2019-04-28T22:25:03.708Z,31.87
2019-04-28T22:27:43.403Z,31.91
2019-04-28T22:30:22.265Z,32.07
2019-04-28T22:33:03.148Z,32.47
2019-04-28T22:35:41.851Z,32.60
2019-04-28T22:38:21.471Z,32.11
2019-04-28T22:40:59.675Z,32.51
2019-04-28T22:43:38.123Z,32.70
2019-04-28T22:46:16.458Z,32.44
2019-04-28T22:48:57.222Z,32.00
2019-04-28T22:51:35.823Z,32.42
2019-04-28T22:54:26.001Z,32.50
2019-04-28T22:57:15.457Z,32.12
2019-04-28T22:59:53.893Z,31.81
2019-04-28T23:02:32.730Z,31.77
2019-04-28T23:05:11.794Z,31.81
2019-04-28T23:07:49.266Z,31.38
2019-04-28T23:10:27.692Z,31.73
2019-04-28T23:13:05.321Z,31.87
2019-04-28T23:15:43.144Z,31.32
2019-04-28T23:18:20.391Z,31.53
2019-04-28T23:21:01.916Z,32.05
2019-04-28T23:23:43.316Z,32.18
2019-04-28T23:26:21.240Z,31.63
2019-04-28T23:29:00.540Z,31.69
2019-04-28T23:31:39.775Z,31.73
2019-04-28T23:34:18.606Z,31.72
2019-04-28T23:36:57.644Z,31.91
2019-04-28T23:39:35.015Z,32.20
2019-04-28T23:42:28.906Z,32.12
2019-04-28T23:45:06.513Z,31.93
2019-04-28T23:47:44.009Z,32.25
2019-04-28T23:50:29.417Z,32.56
2019-04-28T23:53:12.110Z,32.16
2019-04-28T23:55:49.432Z,32.02
2019-04-28T23:58:27.430Z,32.10
